HESG

Sohag Airport

Sohag, Egypt
METAR HESG 180000Z 32008KT CAVOK 22/13 Q1011 NOSIG
Observed Flight Rules
Oct-18 @ 00:00 UTC (an hour ago) Visual Flight Rules
Wind Visibility Clouds
320° at 8 knots 10,000+ meters
  • Clear skies
Temperatures Readings
Current 22°C / 72°F
Dewpoint 13°C / 55°F
Humidity 57%
Altimeter 29.85" Hg
Pressure 1011 hPa
Elevation 70
METAR HESG 180000Z 32008KT CAVOK 22/13 Q1011 NOSIG
Observed Flight Rules
Oct-18 @ 00:00 UTC
(an hour ago)
VFR
Wind Visibility
320° at 8 knots 10,000+ meters
Clouds
  • Clear skies
Temperature Dewpoint
22°C / 72°F 13°C / 55°F
Humidity Altimeter Pressure
57% 29.85" Hg 1011 hPa